sensor_id;sensor_type;location;lat;lon;timestamp;P1;durP1;ratioP1;P2;durP2;ratioP2
7941;SDS011;4016;50.758;7.150;2023-05-15T00:04:35;4.10;;;3.70;;
7941;SDS011;4016;50.758;7.150;2023-05-15T00:09:36;4.13;;;3.50;;
7941;SDS011;4016;50.758;7.150;2023-05-15T00:14:36;3.63;;;3.33;;
7941;SDS011;4016;50.758;7.150;2023-05-15T00:19:36;3.90;;;3.50;;
7941;SDS011;4016;50.758;7.150;2023-05-15T00:24:37;3.83;;;3.40;;
7941;SDS011;4016;50.758;7.150;2023-05-15T00:29:37;3.67;;;3.37;;
7941;SDS011;4016;50.758;7.150;2023-05-15T00:34:38;3.50;;;3.20;;
7941;SDS011;4016;50.758;7.150;2023-05-15T00:39:38;3.97;;;3.57;;
7941;SDS011;4016;50.758;7.150;2023-05-15T00:44:39;4.40;;;3.97;;
7941;SDS011;4016;50.758;7.150;2023-05-15T00:49:40;4.37;;;3.53;;
7941;SDS011;4016;50.758;7.150;2023-05-15T00:54:41;4.37;;;3.40;;
7941;SDS011;4016;50.758;7.150;2023-05-15T00:59:42;3.67;;;3.37;;
7941;SDS011;4016;50.758;7.150;2023-05-15T01:04:44;3.73;;;3.43;;
7941;SDS011;4016;50.758;7.150;2023-05-15T01:09:44;4.20;;;3.40;;
7941;SDS011;4016;50.758;7.150;2023-05-15T01:14:47;4.07;;;3.70;;
7941;SDS011;4016;50.758;7.150;2023-05-15T01:19:49;4.13;;;3.73;;
7941;SDS011;4016;50.758;7.150;2023-05-15T01:35:15;4.03;;;3.63;;
7941;SDS011;4016;50.758;7.150;2023-05-15T01:40:22;3.87;;;3.50;;
7941;SDS011;4016;50.758;7.150;2023-05-15T01:45:25;4.13;;;3.73;;
7941;SDS011;4016;50.758;7.150;2023-05-15T01:50:27;4.43;;;4.03;;
7941;SDS011;4016;50.758;7.150;2023-05-15T01:55:31;4.97;;;4.40;;
7941;SDS011;4016;50.758;7.150;2023-05-15T02:00:33;5.53;;;4.57;;
7941;SDS011;4016;50.758;7.150;2023-05-15T02:05:34;5.23;;;4.73;;
7941;SDS011;4016;50.758;7.150;2023-05-15T02:10:36;5.37;;;4.47;;
7941;SDS011;4016;50.758;7.150;2023-05-15T02:15:38;8.70;;;4.80;;
7941;SDS011;4016;50.758;7.150;2023-05-15T02:20:39;5.27;;;4.73;;
7941;SDS011;4016;50.758;7.150;2023-05-15T02:25:49;5.97;;;5.37;;
7941;SDS011;4016;50.758;7.150;2023-05-15T02:36:32;7.60;;;6.90;;
7941;SDS011;4016;50.758;7.150;2023-05-15T02:41:39;8.87;;;7.97;;
7941;SDS011;4016;50.758;7.150;2023-05-15T02:46:39;20.37;;;11.63;;
7941;SDS011;4016;50.758;7.150;2023-05-15T02:51:40;24.20;;;15.93;;
7941;SDS011;4016;50.758;7.150;2023-05-15T02:56:41;21.47;;;15.43;;
7941;SDS011;4016;50.758;7.150;2023-05-15T03:01:41;25.90;;;17.57;;
7941;SDS011;4016;50.758;7.150;2023-05-15T03:06:42;27.13;;;17.47;;
7941;SDS011;4016;50.758;7.150;2023-05-15T03:11:43;29.50;;;19.80;;
7941;SDS011;4016;50.758;7.150;2023-05-15T03:16:43;33.37;;;20.50;;
7941;SDS011;4016;50.758;7.150;2023-05-15T03:21:43;34.07;;;21.93;;
7941;SDS011;4016;50.758;7.150;2023-05-15T03:26:44;32.50;;;20.83;;
7941;SDS011;4016;50.758;7.150;2023-05-15T03:31:44;33.33;;;20.60;;
7941;SDS011;4016;50.758;7.150;2023-05-15T03:36:44;35.40;;;21.53;;
7941;SDS011;4016;50.758;7.150;2023-05-15T03:41:45;34.33;;;20.87;;
7941;SDS011;4016;50.758;7.150;2023-05-15T03:46:45;32.40;;;21.77;;
7941;SDS011;4016;50.758;7.150;2023-05-15T03:51:46;40.60;;;22.83;;
7941;SDS011;4016;50.758;7.150;2023-05-15T03:56:46;37.30;;;23.27;;
7941;SDS011;4016;50.758;7.150;2023-05-15T04:01:47;41.30;;;23.07;;
7941;SDS011;4016;50.758;7.150;2023-05-15T04:06:47;42.20;;;24.60;;
7941;SDS011;4016;50.758;7.150;2023-05-15T04:11:48;41.47;;;25.70;;
7941;SDS011;4016;50.758;7.150;2023-05-15T04:16:49;39.93;;;25.30;;
7941;SDS011;4016;50.758;7.150;2023-05-15T04:21:49;48.73;;;27.30;;
7941;SDS011;4016;50.758;7.150;2023-05-15T04:26:50;47.97;;;27.00;;
7941;SDS011;4016;50.758;7.150;2023-05-15T04:31:50;51.77;;;29.53;;
7941;SDS011;4016;50.758;7.150;2023-05-15T04:36:51;43.73;;;27.33;;
7941;SDS011;4016;50.758;7.150;2023-05-15T04:41:51;43.20;;;28.13;;
7941;SDS011;4016;50.758;7.150;2023-05-15T04:46:51;40.03;;;25.60;;
7941;SDS011;4016;50.758;7.150;2023-05-15T04:51:52;43.63;;;25.23;;
7941;SDS011;4016;50.758;7.150;2023-05-15T04:56:52;45.23;;;26.73;;
7941;SDS011;4016;50.758;7.150;2023-05-15T05:01:53;39.27;;;24.43;;
7941;SDS011;4016;50.758;7.150;2023-05-15T05:06:53;41.90;;;24.23;;
7941;SDS011;4016;50.758;7.150;2023-05-15T05:11:54;35.17;;;23.93;;
7941;SDS011;4016;50.758;7.150;2023-05-15T05:16:54;32.97;;;22.37;;
7941;SDS011;4016;50.758;7.150;2023-05-15T05:21:55;30.93;;;22.77;;
7941;SDS011;4016;50.758;7.150;2023-05-15T05:26:57;39.60;;;22.90;;
7941;SDS011;4016;50.758;7.150;2023-05-15T05:31:58;34.63;;;23.77;;
7941;SDS011;4016;50.758;7.150;2023-05-15T05:36:58;33.47;;;22.93;;
7941;SDS011;4016;50.758;7.150;2023-05-15T05:41:58;31.50;;;23.23;;
7941;SDS011;4016;50.758;7.150;2023-05-15T05:46:59;35.13;;;22.77;;
7941;SDS011;4016;50.758;7.150;2023-05-15T05:52:06;39.77;;;24.70;;
7941;SDS011;4016;50.758;7.150;2023-05-15T05:57:08;37.07;;;24.93;;
7941;SDS011;4016;50.758;7.150;2023-05-15T06:02:09;35.23;;;24.33;;
7941;SDS011;4016;50.758;7.150;2023-05-15T06:07:10;33.63;;;22.97;;
7941;SDS011;4016;50.758;7.150;2023-05-15T06:12:11;34.93;;;24.47;;
7941;SDS011;4016;50.758;7.150;2023-05-15T06:17:11;31.23;;;23.20;;
7941;SDS011;4016;50.758;7.150;2023-05-15T06:22:12;33.93;;;23.70;;
7941;SDS011;4016;50.758;7.150;2023-05-15T06:27:12;32.17;;;22.63;;
7941;SDS011;4016;50.758;7.150;2023-05-15T06:32:12;32.33;;;23.13;;
7941;SDS011;4016;50.758;7.150;2023-05-15T06:37:13;31.97;;;22.90;;
7941;SDS011;4016;50.758;7.150;2023-05-15T06:42:13;32.60;;;22.80;;
7941;SDS011;4016;50.758;7.150;2023-05-15T06:47:14;36.17;;;24.37;;
7941;SDS011;4016;50.758;7.150;2023-05-15T06:52:15;35.90;;;25.83;;
7941;SDS011;4016;50.758;7.150;2023-05-15T06:57:15;40.90;;;26.70;;
7941;SDS011;4016;50.758;7.150;2023-05-15T07:02:15;42.53;;;27.73;;
7941;SDS011;4016;50.758;7.150;2023-05-15T07:07:16;42.77;;;27.30;;
7941;SDS011;4016;50.758;7.150;2023-05-15T07:12:17;40.60;;;27.97;;
7941;SDS011;4016;50.758;7.150;2023-05-15T07:17:17;38.40;;;25.67;;
7941;SDS011;4016;50.758;7.150;2023-05-15T07:22:18;35.03;;;24.17;;
7941;SDS011;4016;50.758;7.150;2023-05-15T07:27:18;33.70;;;24.30;;
7941;SDS011;4016;50.758;7.150;2023-05-15T07:32:19;36.27;;;24.80;;
7941;SDS011;4016;50.758;7.150;2023-05-15T07:37:19;33.53;;;23.87;;
7941;SDS011;4016;50.758;7.150;2023-05-15T07:42:20;34.53;;;23.97;;
7941;SDS011;4016;50.758;7.150;2023-05-15T07:47:20;32.73;;;24.80;;
7941;SDS011;4016;50.758;7.150;2023-05-15T07:52:21;36.53;;;25.53;;
7941;SDS011;4016;50.758;7.150;2023-05-15T07:57:21;38.63;;;26.43;;
7941;SDS011;4016;50.758;7.150;2023-05-15T08:02:22;38.17;;;26.17;;
7941;SDS011;4016;50.758;7.150;2023-05-15T08:07:23;37.60;;;27.50;;
7941;SDS011;4016;50.758;7.150;2023-05-15T08:12:23;36.40;;;23.90;;
7941;SDS011;4016;50.758;7.150;2023-05-15T08:17:23;33.40;;;22.97;;
7941;SDS011;4016;50.758;7.150;2023-05-15T08:22:24;30.30;;;23.43;;
7941;SDS011;4016;50.758;7.150;2023-05-15T08:27:24;32.57;;;23.37;;
7941;SDS011;4016;50.758;7.150;2023-05-15T08:32:26;34.13;;;24.10;;
7941;SDS011;4016;50.758;7.150;2023-05-15T08:37:26;36.33;;;24.20;;
7941;SDS011;4016;50.758;7.150;2023-05-15T08:42:27;33.03;;;23.17;;
7941;SDS011;4016;50.758;7.150;2023-05-15T08:47:34;36.07;;;25.47;;
7941;SDS011;4016;50.758;7.150;2023-05-15T08:52:48;33.97;;;23.40;;
7941;SDS011;4016;50.758;7.150;2023-05-15T08:57:50;33.97;;;23.90;;
7941;SDS011;4016;50.758;7.150;2023-05-15T09:02:52;34.80;;;23.77;;
7941;SDS011;4016;50.758;7.150;2023-05-15T09:07:52;36.60;;;25.63;;
7941;SDS011;4016;50.758;7.150;2023-05-15T09:12:53;35.00;;;25.13;;
7941;SDS011;4016;50.758;7.150;2023-05-15T09:17:54;38.53;;;26.30;;
7941;SDS011;4016;50.758;7.150;2023-05-15T09:22:55;40.03;;;26.63;;
7941;SDS011;4016;50.758;7.150;2023-05-15T09:27:57;39.00;;;27.53;;
7941;SDS011;4016;50.758;7.150;2023-05-15T09:32:58;37.27;;;27.27;;
7941;SDS011;4016;50.758;7.150;2023-05-15T09:38:00;35.40;;;26.77;;
7941;SDS011;4016;50.758;7.150;2023-05-15T09:43:02;37.63;;;25.47;;
7941;SDS011;4016;50.758;7.150;2023-05-15T09:48:03;35.97;;;25.97;;
7941;SDS011;4016;50.758;7.150;2023-05-15T09:53:04;34.97;;;25.83;;
7941;SDS011;4016;50.758;7.150;2023-05-15T10:03:07;34.60;;;25.97;;
7941;SDS011;4016;50.758;7.150;2023-05-15T10:08:08;31.53;;;24.93;;
7941;SDS011;4016;50.758;7.150;2023-05-15T10:13:08;34.47;;;24.70;;
7941;SDS011;4016;50.758;7.150;2023-05-15T10:18:10;33.23;;;24.93;;
7941;SDS011;4016;50.758;7.150;2023-05-15T10:23:12;33.47;;;26.08;;
7941;SDS011;4016;50.758;7.150;2023-05-15T10:28:16;32.53;;;23.88;;
7941;SDS011;4016;50.758;7.150;2023-05-15T10:33:18;31.13;;;23.83;;
7941;SDS011;4016;50.758;7.150;2023-05-15T10:38:19;30.77;;;24.42;;
7941;SDS011;4016;50.758;7.150;2023-05-15T10:43:20;29.55;;;24.17;;
7941;SDS011;4016;50.758;7.150;2023-05-15T10:48:22;34.72;;;27.17;;
7941;SDS011;4016;50.758;7.150;2023-05-15T10:53:23;31.10;;;25.48;;
7941;SDS011;4016;50.758;7.150;2023-05-15T10:58:23;28.92;;;22.48;;
7941;SDS011;4016;50.758;7.150;2023-05-15T11:03:36;29.33;;;23.45;;
7941;SDS011;4016;50.758;7.150;2023-05-15T11:08:38;20.27;;;16.98;;
7941;SDS011;4016;50.758;7.150;2023-05-15T11:19:22;21.02;;;18.80;;
7941;SDS011;4016;50.758;7.150;2023-05-15T11:30:04;21.20;;;16.60;;
7941;SDS011;4016;50.758;7.150;2023-05-15T11:40:48;17.00;;;14.52;;
7941;SDS011;4016;50.758;7.150;2023-05-15T11:45:55;13.95;;;12.55;;
7941;SDS011;4016;50.758;7.150;2023-05-15T11:51:20;15.23;;;12.70;;
7941;SDS011;4016;50.758;7.150;2023-05-15T11:56:23;13.45;;;11.98;;
7941;SDS011;4016;50.758;7.150;2023-05-15T12:01:27;15.50;;;11.77;;
7941;SDS011;4016;50.758;7.150;2023-05-15T12:06:37;12.65;;;11.38;;
7941;SDS011;4016;50.758;7.150;2023-05-15T12:11:38;13.38;;;11.98;;
7941;SDS011;4016;50.758;7.150;2023-05-15T12:16:39;10.60;;;9.00;;
7941;SDS011;4016;50.758;7.150;2023-05-15T12:21:44;9.80;;;8.88;;
7941;SDS011;4016;50.758;7.150;2023-05-15T12:26:45;12.18;;;9.40;;
7941;SDS011;4016;50.758;7.150;2023-05-15T12:31:46;11.80;;;9.88;;
7941;SDS011;4016;50.758;7.150;2023-05-15T12:36:46;11.93;;;10.60;;
7941;SDS011;4016;50.758;7.150;2023-05-15T12:41:47;11.02;;;9.93;;
7941;SDS011;4016;50.758;7.150;2023-05-15T12:46:48;11.40;;;9.15;;
7941;SDS011;4016;50.758;7.150;2023-05-15T12:51:53;10.10;;;9.00;;
7941;SDS011;4016;50.758;7.150;2023-05-15T12:56:54;10.85;;;9.52;;
7941;SDS011;4016;50.758;7.150;2023-05-15T13:01:54;10.45;;;9.35;;
7941;SDS011;4016;50.758;7.150;2023-05-15T13:06:55;10.27;;;8.68;;
7941;SDS011;4016;50.758;7.150;2023-05-15T13:11:55;9.32;;;8.48;;
7941;SDS011;4016;50.758;7.150;2023-05-15T13:16:57;9.23;;;8.20;;
7941;SDS011;4016;50.758;7.150;2023-05-15T13:22:02;9.93;;;8.10;;
7941;SDS011;4016;50.758;7.150;2023-05-15T13:27:03;9.38;;;8.13;;
7941;SDS011;4016;50.758;7.150;2023-05-15T13:32:04;6.60;;;6.00;;
7941;SDS011;4016;50.758;7.150;2023-05-15T13:37:04;7.70;;;7.00;;
7941;SDS011;4016;50.758;7.150;2023-05-15T13:42:05;8.80;;;7.90;;
7941;SDS011;4016;50.758;7.150;2023-05-15T13:47:05;8.05;;;7.25;;
7941;SDS011;4016;50.758;7.150;2023-05-15T13:52:06;8.82;;;7.93;;
7941;SDS011;4016;50.758;7.150;2023-05-15T13:57:06;9.00;;;8.02;;
7941;SDS011;4016;50.758;7.150;2023-05-15T14:02:06;10.18;;;8.07;;
7941;SDS011;4016;50.758;7.150;2023-05-15T14:07:07;9.65;;;8.65;;
7941;SDS011;4016;50.758;7.150;2023-05-15T14:12:07;11.50;;;8.63;;
7941;SDS011;4016;50.758;7.150;2023-05-15T14:17:08;9.50;;;8.50;;
7941;SDS011;4016;50.758;7.150;2023-05-15T14:22:09;8.88;;;7.30;;
7941;SDS011;4016;50.758;7.150;2023-05-15T14:27:10;7.05;;;6.45;;
7941;SDS011;4016;50.758;7.150;2023-05-15T14:32:10;7.07;;;5.97;;
7941;SDS011;4016;50.758;7.150;2023-05-15T14:37:10;7.25;;;6.40;;
7941;SDS011;4016;50.758;7.150;2023-05-15T14:42:11;8.65;;;6.90;;
7941;SDS011;4016;50.758;7.150;2023-05-15T14:47:11;8.85;;;7.95;;
7941;SDS011;4016;50.758;7.150;2023-05-15T14:52:12;8.38;;;6.60;;
7941;SDS011;4016;50.758;7.150;2023-05-15T14:57:12;7.38;;;6.68;;
7941;SDS011;4016;50.758;7.150;2023-05-15T15:02:13;8.20;;;7.38;;
7941;SDS011;4016;50.758;7.150;2023-05-15T15:07:13;9.73;;;6.90;;
7941;SDS011;4016;50.758;7.150;2023-05-15T15:12:13;11.80;;;10.57;;
7941;SDS011;4016;50.758;7.150;2023-05-15T15:17:14;16.23;;;11.48;;
7941;SDS011;4016;50.758;7.150;2023-05-15T15:22:14;16.27;;;13.75;;
7941;SDS011;4016;50.758;7.150;2023-05-15T15:27:15;14.20;;;12.77;;
7941;SDS011;4016;50.758;7.150;2023-05-15T15:32:15;16.33;;;12.68;;
7941;SDS011;4016;50.758;7.150;2023-05-15T15:37:15;14.82;;;13.13;;
7941;SDS011;4016;50.758;7.150;2023-05-15T15:42:16;15.80;;;12.65;;
7941;SDS011;4016;50.758;7.150;2023-05-15T15:47:16;16.83;;;12.10;;
7941;SDS011;4016;50.758;7.150;2023-05-15T15:52:17;11.27;;;10.07;;
7941;SDS011;4016;50.758;7.150;2023-05-15T15:57:19;11.80;;;9.57;;
7941;SDS011;4016;50.758;7.150;2023-05-15T16:02:20;12.75;;;9.73;;
7941;SDS011;4016;50.758;7.150;2023-05-15T16:07:20;15.00;;;12.73;;
7941;SDS011;4016;50.758;7.150;2023-05-15T16:12:21;14.25;;;12.32;;
7941;SDS011;4016;50.758;7.150;2023-05-15T16:17:21;15.63;;;11.65;;
7941;SDS011;4016;50.758;7.150;2023-05-15T16:22:22;13.55;;;11.73;;
7941;SDS011;4016;50.758;7.150;2023-05-15T16:27:22;13.88;;;11.57;;
7941;SDS011;4016;50.758;7.150;2023-05-15T16:32:23;12.27;;;10.98;;
7941;SDS011;4016;50.758;7.150;2023-05-15T16:37:25;14.15;;;10.70;;
7941;SDS011;4016;50.758;7.150;2023-05-15T16:42:25;13.38;;;9.98;;
7941;SDS011;4016;50.758;7.150;2023-05-15T16:47:25;13.93;;;10.85;;
7941;SDS011;4016;50.758;7.150;2023-05-15T16:52:26;12.70;;;10.10;;
7941;SDS011;4016;50.758;7.150;2023-05-15T16:57:26;9.85;;;8.85;;
7941;SDS011;4016;50.758;7.150;2023-05-15T17:02:26;9.98;;;8.75;;
7941;SDS011;4016;50.758;7.150;2023-05-15T17:07:27;12.35;;;9.93;;
7941;SDS011;4016;50.758;7.150;2023-05-15T17:12:27;15.23;;;11.07;;
7941;SDS011;4016;50.758;7.150;2023-05-15T17:17:28;14.40;;;12.35;;
7941;SDS011;4016;50.758;7.150;2023-05-15T17:22:28;14.27;;;11.73;;
7941;SDS011;4016;50.758;7.150;2023-05-15T17:27:29;15.67;;;11.63;;
7941;SDS011;4016;50.758;7.150;2023-05-15T17:32:30;15.33;;;12.83;;
7941;SDS011;4016;50.758;7.150;2023-05-15T17:37:30;15.67;;;12.73;;
7941;SDS011;4016;50.758;7.150;2023-05-15T17:42:30;13.80;;;12.30;;
7941;SDS011;4016;50.758;7.150;2023-05-15T17:47:31;16.67;;;13.03;;
7941;SDS011;4016;50.758;7.150;2023-05-15T17:52:32;17.10;;;13.27;;
7941;SDS011;4016;50.758;7.150;2023-05-15T17:57:34;15.47;;;12.93;;
7941;SDS011;4016;50.758;7.150;2023-05-15T18:02:34;15.77;;;12.90;;
7941;SDS011;4016;50.758;7.150;2023-05-15T18:07:34;19.07;;;13.53;;
7941;SDS011;4016;50.758;7.150;2023-05-15T18:12:35;16.20;;;13.87;;
7941;SDS011;4016;50.758;7.150;2023-05-15T18:17:35;15.93;;;12.70;;
7941;SDS011;4016;50.758;7.150;2023-05-15T18:22:35;15.27;;;12.77;;
7941;SDS011;4016;50.758;7.150;2023-05-15T18:27:36;18.73;;;13.43;;
7941;SDS011;4016;50.758;7.150;2023-05-15T18:32:36;16.77;;;13.73;;
7941;SDS011;4016;50.758;7.150;2023-05-15T18:37:37;16.33;;;11.97;;
7941;SDS011;4016;50.758;7.150;2023-05-15T18:42:37;22.37;;;16.47;;
7941;SDS011;4016;50.758;7.150;2023-05-15T18:47:37;27.63;;;19.53;;
7941;SDS011;4016;50.758;7.150;2023-05-15T18:52:38;25.57;;;17.37;;
7941;SDS011;4016;50.758;7.150;2023-05-15T18:57:39;25.37;;;17.57;;
7941;SDS011;4016;50.758;7.150;2023-05-15T19:02:39;25.57;;;17.00;;
7941;SDS011;4016;50.758;7.150;2023-05-15T19:07:40;24.73;;;16.23;;
7941;SDS011;4016;50.758;7.150;2023-05-15T19:12:41;24.17;;;15.73;;
7941;SDS011;4016;50.758;7.150;2023-05-15T19:17:43;24.20;;;17.20;;
7941;SDS011;4016;50.758;7.150;2023-05-15T19:22:44;21.73;;;16.53;;
7941;SDS011;4016;50.758;7.150;2023-05-15T19:27:45;24.37;;;17.70;;
7941;SDS011;4016;50.758;7.150;2023-05-15T19:32:45;23.23;;;15.83;;
7941;SDS011;4016;50.758;7.150;2023-05-15T19:37:46;24.23;;;17.33;;
7941;SDS011;4016;50.758;7.150;2023-05-15T19:42:46;24.13;;;17.10;;
7941;SDS011;4016;50.758;7.150;2023-05-15T19:47:47;26.73;;;16.90;;
7941;SDS011;4016;50.758;7.150;2023-05-15T19:52:47;22.40;;;16.60;;
7941;SDS011;4016;50.758;7.150;2023-05-15T19:57:47;22.17;;;16.40;;
7941;SDS011;4016;50.758;7.150;2023-05-15T20:02:48;21.83;;;15.50;;
7941;SDS011;4016;50.758;7.150;2023-05-15T20:07:49;18.57;;;13.63;;
7941;SDS011;4016;50.758;7.150;2023-05-15T20:12:49;19.13;;;13.03;;
7941;SDS011;4016;50.758;7.150;2023-05-15T20:17:50;15.30;;;11.17;;
7941;SDS011;4016;50.758;7.150;2023-05-15T20:22:50;9.83;;;8.20;;
7941;SDS011;4016;50.758;7.150;2023-05-15T20:27:50;12.43;;;6.13;;
7941;SDS011;4016;50.758;7.150;2023-05-15T20:32:55;6.47;;;5.57;;
7941;SDS011;4016;50.758;7.150;2023-05-15T20:37:55;6.60;;;5.90;;
7941;SDS011;4016;50.758;7.150;2023-05-15T20:42:57;9.33;;;5.90;;
7941;SDS011;4016;50.758;7.150;2023-05-15T20:47:58;5.50;;;5.00;;
7941;SDS011;4016;50.758;7.150;2023-05-15T20:52:58;6.10;;;5.40;;
7941;SDS011;4016;50.758;7.150;2023-05-15T20:57:59;10.00;;;6.33;;
7941;SDS011;4016;50.758;7.150;2023-05-15T21:02:59;7.63;;;5.37;;
7941;SDS011;4016;50.758;7.150;2023-05-15T21:08:00;8.67;;;5.97;;
7941;SDS011;4016;50.758;7.150;2023-05-15T21:13:01;6.13;;;5.20;;
7941;SDS011;4016;50.758;7.150;2023-05-15T21:18:02;7.07;;;5.33;;
7941;SDS011;4016;50.758;7.150;2023-05-15T21:23:02;5.63;;;5.03;;
7941;SDS011;4016;50.758;7.150;2023-05-15T21:28:03;7.83;;;5.63;;
7941;SDS011;4016;50.758;7.150;2023-05-15T21:33:04;5.67;;;4.93;;
7941;SDS011;4016;50.758;7.150;2023-05-15T21:38:04;8.33;;;5.50;;
7941;SDS011;4016;50.758;7.150;2023-05-15T21:43:05;6.03;;;5.07;;
7941;SDS011;4016;50.758;7.150;2023-05-15T21:48:06;7.57;;;5.37;;
7941;SDS011;4016;50.758;7.150;2023-05-15T21:53:06;7.60;;;6.03;;
7941;SDS011;4016;50.758;7.150;2023-05-15T21:58:07;7.90;;;6.40;;
7941;SDS011;4016;50.758;7.150;2023-05-15T22:03:07;7.77;;;6.23;;
7941;SDS011;4016;50.758;7.150;2023-05-15T22:08:07;9.67;;;5.90;;
7941;SDS011;4016;50.758;7.150;2023-05-15T22:13:08;8.23;;;5.53;;
7941;SDS011;4016;50.758;7.150;2023-05-15T22:18:08;7.20;;;6.50;;
7941;SDS011;4016;50.758;7.150;2023-05-15T22:23:09;9.33;;;5.60;;
7941;SDS011;4016;50.758;7.150;2023-05-15T22:28:09;5.10;;;4.57;;
7941;SDS011;4016;50.758;7.150;2023-05-15T22:33:10;9.37;;;5.60;;
7941;SDS011;4016;50.758;7.150;2023-05-15T22:38:10;6.43;;;5.80;;
7941;SDS011;4016;50.758;7.150;2023-05-15T22:43:11;7.60;;;5.87;;
7941;SDS011;4016;50.758;7.150;2023-05-15T22:48:13;7.90;;;5.43;;
7941;SDS011;4016;50.758;7.150;2023-05-15T22:53:14;7.17;;;5.80;;
7941;SDS011;4016;50.758;7.150;2023-05-15T22:58:14;9.87;;;5.33;;
7941;SDS011;4016;50.758;7.150;2023-05-15T23:03:15;9.43;;;6.57;;
7941;SDS011;4016;50.758;7.150;2023-05-15T23:08:15;9.37;;;6.30;;
7941;SDS011;4016;50.758;7.150;2023-05-15T23:13:15;9.90;;;7.10;;
7941;SDS011;4016;50.758;7.150;2023-05-15T23:18:16;9.03;;;6.30;;
7941;SDS011;4016;50.758;7.150;2023-05-15T23:23:16;9.30;;;6.00;;
7941;SDS011;4016;50.758;7.150;2023-05-15T23:28:18;8.40;;;6.30;;
7941;SDS011;4016;50.758;7.150;2023-05-15T23:33:18;8.33;;;6.60;;
7941;SDS011;4016;50.758;7.150;2023-05-15T23:38:18;7.90;;;6.33;;
7941;SDS011;4016;50.758;7.150;2023-05-15T23:43:22;9.53;;;6.17;;
7941;SDS011;4016;50.758;7.150;2023-05-15T23:48:22;7.97;;;6.57;;
7941;SDS011;4016;50.758;7.150;2023-05-15T23:53:23;9.60;;;6.70;;
7941;SDS011;4016;50.758;7.150;2023-05-15T23:58:23;8.90;;;7.87;;
